sensor_id;sensor_type;location;lat;lon;timestamp;P1;durP1;ratioP1;P2;durP2;ratioP2
20639;SDS011;10479;53.524;9.846;2022-08-23T00:01:49;10.43;;;2.58;;
20639;SDS011;10479;53.524;9.846;2022-08-23T00:04:23;5.72;;;1.85;;
20639;SDS011;10479;53.524;9.846;2022-08-23T00:06:51;7.35;;;1.92;;
20639;SDS011;10479;53.524;9.846;2022-08-23T00:09:20;8.65;;;2.25;;
20639;SDS011;10479;53.524;9.846;2022-08-23T00:11:47;6.57;;;2.22;;
20639;SDS011;10479;53.524;9.846;2022-08-23T00:16:46;9.10;;;2.40;;
20639;SDS011;10479;53.524;9.846;2022-08-23T00:19:12;5.55;;;2.10;;
20639;SDS011;10479;53.524;9.846;2022-08-23T00:21:40;9.43;;;2.20;;
20639;SDS011;10479;53.524;9.846;2022-08-23T00:24:06;8.40;;;2.05;;
20639;SDS011;10479;53.524;9.846;2022-08-23T00:29:19;7.88;;;1.88;;
20639;SDS011;10479;53.524;9.846;2022-08-23T00:31:45;7.43;;;2.05;;
20639;SDS011;10479;53.524;9.846;2022-08-23T00:34:11;10.50;;;2.10;;
20639;SDS011;10479;53.524;9.846;2022-08-23T00:36:37;5.90;;;1.90;;
20639;SDS011;10479;53.524;9.846;2022-08-23T00:39:03;5.13;;;1.90;;
20639;SDS011;10479;53.524;9.846;2022-08-23T00:41:29;7.90;;;2.53;;
20639;SDS011;10479;53.524;9.846;2022-08-23T00:43:55;9.00;;;2.10;;
20639;SDS011;10479;53.524;9.846;2022-08-23T00:46:45;7.72;;;2.10;;
20639;SDS011;10479;53.524;9.846;2022-08-23T00:49:32;5.65;;;2.20;;
20639;SDS011;10479;53.524;9.846;2022-08-23T00:54:31;7.18;;;2.08;;
20639;SDS011;10479;53.524;9.846;2022-08-23T00:56:57;8.00;;;2.40;;
20639;SDS011;10479;53.524;9.846;2022-08-23T00:59:25;9.48;;;2.00;;
20639;SDS011;10479;53.524;9.846;2022-08-23T01:02:01;7.07;;;2.00;;
20639;SDS011;10479;53.524;9.846;2022-08-23T01:04:29;8.43;;;2.20;;
20639;SDS011;10479;53.524;9.846;2022-08-23T01:06:58;8.73;;;2.22;;
20639;SDS011;10479;53.524;9.846;2022-08-23T01:09:27;9.15;;;2.38;;
20639;SDS011;10479;53.524;9.846;2022-08-23T01:14:33;6.18;;;1.95;;
20639;SDS011;10479;53.524;9.846;2022-08-23T01:17:21;8.57;;;2.50;;
20639;SDS011;10479;53.524;9.846;2022-08-23T01:19:51;9.65;;;2.30;;
20639;SDS011;10479;53.524;9.846;2022-08-23T01:22:33;6.68;;;2.53;;
20639;SDS011;10479;53.524;9.846;2022-08-23T01:25:03;8.88;;;2.20;;
20639;SDS011;10479;53.524;9.846;2022-08-23T01:27:30;8.85;;;2.55;;
20639;SDS011;10479;53.524;9.846;2022-08-23T01:29:56;7.97;;;2.75;;
20639;SDS011;10479;53.524;9.846;2022-08-23T01:32:32;8.38;;;2.72;;
20639;SDS011;10479;53.524;9.846;2022-08-23T01:35:10;8.43;;;2.45;;
20639;SDS011;10479;53.524;9.846;2022-08-23T01:37:41;8.73;;;2.30;;
20639;SDS011;10479;53.524;9.846;2022-08-23T01:40:07;7.97;;;2.35;;
20639;SDS011;10479;53.524;9.846;2022-08-23T01:42:33;5.93;;;2.35;;
20639;SDS011;10479;53.524;9.846;2022-08-23T01:44:58;6.20;;;2.47;;
20639;SDS011;10479;53.524;9.846;2022-08-23T01:47:28;7.68;;;2.35;;
20639;SDS011;10479;53.524;9.846;2022-08-23T01:49:53;8.85;;;2.40;;
20639;SDS011;10479;53.524;9.846;2022-08-23T01:52:19;6.55;;;2.20;;
20639;SDS011;10479;53.524;9.846;2022-08-23T01:54:46;6.22;;;2.58;;
20639;SDS011;10479;53.524;9.846;2022-08-23T01:57:11;8.07;;;2.30;;
20639;SDS011;10479;53.524;9.846;2022-08-23T01:59:37;6.72;;;2.50;;
20639;SDS011;10479;53.524;9.846;2022-08-23T02:02:06;8.02;;;2.33;;
20639;SDS011;10479;53.524;9.846;2022-08-23T02:04:32;6.00;;;2.35;;
20639;SDS011;10479;53.524;9.846;2022-08-23T02:06:57;6.80;;;2.50;;
20639;SDS011;10479;53.524;9.846;2022-08-23T02:09:23;7.07;;;2.65;;
20639;SDS011;10479;53.524;9.846;2022-08-23T02:11:48;5.82;;;2.38;;
20639;SDS011;10479;53.524;9.846;2022-08-23T02:14:17;9.02;;;2.60;;
20639;SDS011;10479;53.524;9.846;2022-08-23T02:16:45;6.82;;;2.55;;
20639;SDS011;10479;53.524;9.846;2022-08-23T02:19:14;8.70;;;2.60;;
20639;SDS011;10479;53.524;9.846;2022-08-23T02:21:40;9.90;;;2.50;;
20639;SDS011;10479;53.524;9.846;2022-08-23T02:24:10;7.50;;;2.90;;
20639;SDS011;10479;53.524;9.846;2022-08-23T02:26:41;8.30;;;2.70;;
20639;SDS011;10479;53.524;9.846;2022-08-23T02:29:13;7.72;;;2.47;;
20639;SDS011;10479;53.524;9.846;2022-08-23T02:31:43;8.70;;;2.60;;
20639;SDS011;10479;53.524;9.846;2022-08-23T02:34:11;7.13;;;2.92;;
20639;SDS011;10479;53.524;9.846;2022-08-23T02:36:37;6.93;;;2.80;;
20639;SDS011;10479;53.524;9.846;2022-08-23T02:39:03;8.70;;;2.63;;
20639;SDS011;10479;53.524;9.846;2022-08-23T02:41:30;5.78;;;2.42;;
20639;SDS011;10479;53.524;9.846;2022-08-23T02:43:55;7.60;;;2.70;;
20639;SDS011;10479;53.524;9.846;2022-08-23T02:46:21;8.82;;;3.00;;
20639;SDS011;10479;53.524;9.846;2022-08-23T02:48:57;13.68;;;3.45;;
20639;SDS011;10479;53.524;9.846;2022-08-23T02:51:23;10.40;;;3.25;;
20639;SDS011;10479;53.524;9.846;2022-08-23T02:53:49;7.47;;;2.85;;
20639;SDS011;10479;53.524;9.846;2022-08-23T02:56:17;6.65;;;2.75;;
20639;SDS011;10479;53.524;9.846;2022-08-23T02:58:42;5.80;;;2.80;;
20639;SDS011;10479;53.524;9.846;2022-08-23T03:01:17;10.13;;;2.97;;
20639;SDS011;10479;53.524;9.846;2022-08-23T03:03:44;8.35;;;2.72;;
20639;SDS011;10479;53.524;9.846;2022-08-23T03:06:10;7.40;;;3.22;;
20639;SDS011;10479;53.524;9.846;2022-08-23T03:08:38;6.88;;;3.00;;
20639;SDS011;10479;53.524;9.846;2022-08-23T03:11:15;6.40;;;3.00;;
20639;SDS011;10479;53.524;9.846;2022-08-23T03:13:52;6.93;;;2.90;;
20639;SDS011;10479;53.524;9.846;2022-08-23T03:16:19;8.15;;;3.00;;
20639;SDS011;10479;53.524;9.846;2022-08-23T03:18:45;7.32;;;3.13;;
20639;SDS011;10479;53.524;9.846;2022-08-23T03:21:12;6.90;;;3.08;;
20639;SDS011;10479;53.524;9.846;2022-08-23T03:23:38;9.45;;;2.95;;
20639;SDS011;10479;53.524;9.846;2022-08-23T03:26:04;6.95;;;3.20;;
20639;SDS011;10479;53.524;9.846;2022-08-23T03:28:38;7.40;;;3.00;;
20639;SDS011;10479;53.524;9.846;2022-08-23T03:31:11;9.18;;;3.30;;
20639;SDS011;10479;53.524;9.846;2022-08-23T03:33:36;11.13;;;3.20;;
20639;SDS011;10479;53.524;9.846;2022-08-23T03:36:03;7.95;;;3.00;;
20639;SDS011;10479;53.524;9.846;2022-08-23T03:38:30;6.65;;;3.40;;
20639;SDS011;10479;53.524;9.846;2022-08-23T03:40:56;8.80;;;3.50;;
20639;SDS011;10479;53.524;9.846;2022-08-23T03:43:22;5.53;;;2.80;;
20639;SDS011;10479;53.524;9.846;2022-08-23T03:45:47;6.93;;;3.10;;
20639;SDS011;10479;53.524;9.846;2022-08-23T03:48:15;8.23;;;3.22;;
20639;SDS011;10479;53.524;9.846;2022-08-23T03:50:40;5.78;;;2.97;;
20639;SDS011;10479;53.524;9.846;2022-08-23T03:53:06;9.25;;;3.42;;
20639;SDS011;10479;53.524;9.846;2022-08-23T03:55:32;6.97;;;3.03;;
20639;SDS011;10479;53.524;9.846;2022-08-23T03:57:57;6.85;;;2.83;;
20639;SDS011;10479;53.524;9.846;2022-08-23T04:00:23;5.88;;;3.13;;
20639;SDS011;10479;53.524;9.846;2022-08-23T04:02:48;7.65;;;3.00;;
20639;SDS011;10479;53.524;9.846;2022-08-23T04:05:15;8.05;;;3.20;;
20639;SDS011;10479;53.524;9.846;2022-08-23T04:07:41;10.13;;;3.40;;
20639;SDS011;10479;53.524;9.846;2022-08-23T04:10:07;9.25;;;3.28;;
20639;SDS011;10479;53.524;9.846;2022-08-23T04:12:34;7.63;;;3.78;;
20639;SDS011;10479;53.524;9.846;2022-08-23T04:15:00;8.63;;;3.40;;
20639;SDS011;10479;53.524;9.846;2022-08-23T04:17:25;7.82;;;3.10;;
20639;SDS011;10479;53.524;9.846;2022-08-23T04:19:52;5.85;;;2.97;;
20639;SDS011;10479;53.524;9.846;2022-08-23T04:22:17;7.93;;;3.28;;
20639;SDS011;10479;53.524;9.846;2022-08-23T04:24:44;11.85;;;3.50;;
20639;SDS011;10479;53.524;9.846;2022-08-23T04:27:10;9.93;;;3.17;;
20639;SDS011;10479;53.524;9.846;2022-08-23T04:29:37;11.88;;;3.50;;
20639;SDS011;10479;53.524;9.846;2022-08-23T04:32:07;9.45;;;3.70;;
20639;SDS011;10479;53.524;9.846;2022-08-23T04:34:34;8.30;;;3.60;;
20639;SDS011;10479;53.524;9.846;2022-08-23T04:37:00;7.38;;;3.65;;
20639;SDS011;10479;53.524;9.846;2022-08-23T04:39:26;8.98;;;3.40;;
20639;SDS011;10479;53.524;9.846;2022-08-23T04:41:51;8.77;;;3.90;;
20639;SDS011;10479;53.524;9.846;2022-08-23T04:44:36;8.32;;;3.67;;
20639;SDS011;10479;53.524;9.846;2022-08-23T04:47:01;7.45;;;3.17;;
20639;SDS011;10479;53.524;9.846;2022-08-23T04:49:27;12.90;;;3.78;;
20639;SDS011;10479;53.524;9.846;2022-08-23T04:51:52;8.73;;;3.55;;
20639;SDS011;10479;53.524;9.846;2022-08-23T04:54:18;10.20;;;3.75;;
20639;SDS011;10479;53.524;9.846;2022-08-23T04:56:43;9.77;;;3.83;;
20639;SDS011;10479;53.524;9.846;2022-08-23T04:59:09;8.50;;;3.83;;
20639;SDS011;10479;53.524;9.846;2022-08-23T05:01:35;6.70;;;3.78;;
20639;SDS011;10479;53.524;9.846;2022-08-23T05:04:02;9.13;;;3.90;;
20639;SDS011;10479;53.524;9.846;2022-08-23T05:06:29;8.23;;;3.72;;
20639;SDS011;10479;53.524;9.846;2022-08-23T05:08:55;8.52;;;3.90;;
20639;SDS011;10479;53.524;9.846;2022-08-23T05:11:21;8.88;;;4.05;;
20639;SDS011;10479;53.524;9.846;2022-08-23T05:13:46;8.75;;;3.85;;
20639;SDS011;10479;53.524;9.846;2022-08-23T05:16:12;8.20;;;4.10;;
20639;SDS011;10479;53.524;9.846;2022-08-23T05:18:38;10.98;;;3.92;;
20639;SDS011;10479;53.524;9.846;2022-08-23T05:21:05;11.45;;;3.97;;
20639;SDS011;10479;53.524;9.846;2022-08-23T05:23:30;11.38;;;3.95;;
20639;SDS011;10479;53.524;9.846;2022-08-23T05:25:56;10.60;;;4.07;;
20639;SDS011;10479;53.524;9.846;2022-08-23T05:28:32;9.63;;;4.53;;
20639;SDS011;10479;53.524;9.846;2022-08-23T05:33:40;14.35;;;4.75;;
20639;SDS011;10479;53.524;9.846;2022-08-23T05:36:08;10.25;;;4.30;;
20639;SDS011;10479;53.524;9.846;2022-08-23T05:38:35;10.32;;;4.85;;
20639;SDS011;10479;53.524;9.846;2022-08-23T05:41:01;12.52;;;4.63;;
20639;SDS011;10479;53.524;9.846;2022-08-23T05:43:27;14.82;;;4.60;;
20639;SDS011;10479;53.524;9.846;2022-08-23T05:46:15;11.48;;;4.28;;
20639;SDS011;10479;53.524;9.846;2022-08-23T05:48:46;13.60;;;4.80;;
20639;SDS011;10479;53.524;9.846;2022-08-23T05:53:43;7.85;;;4.10;;
20639;SDS011;10479;53.524;9.846;2022-08-23T05:56:32;10.13;;;4.40;;
20639;SDS011;10479;53.524;9.846;2022-08-23T05:58:57;8.02;;;4.68;;
20639;SDS011;10479;53.524;9.846;2022-08-23T06:01:26;9.45;;;4.53;;
20639;SDS011;10479;53.524;9.846;2022-08-23T06:03:53;9.75;;;4.05;;
20639;SDS011;10479;53.524;9.846;2022-08-23T06:06:19;8.75;;;4.43;;
20639;SDS011;10479;53.524;9.846;2022-08-23T06:08:45;11.10;;;4.13;;
20639;SDS011;10479;53.524;9.846;2022-08-23T06:11:13;9.02;;;4.60;;
20639;SDS011;10479;53.524;9.846;2022-08-23T06:13:43;8.82;;;4.80;;
20639;SDS011;10479;53.524;9.846;2022-08-23T06:16:10;9.00;;;4.53;;
20639;SDS011;10479;53.524;9.846;2022-08-23T06:18:39;11.75;;;4.60;;
20639;SDS011;10479;53.524;9.846;2022-08-23T06:21:11;12.10;;;4.88;;
20639;SDS011;10479;53.524;9.846;2022-08-23T06:23:37;8.20;;;4.40;;
20639;SDS011;10479;53.524;9.846;2022-08-23T06:26:10;12.00;;;4.88;;
20639;SDS011;10479;53.524;9.846;2022-08-23T06:28:39;12.57;;;4.50;;
20639;SDS011;10479;53.524;9.846;2022-08-23T06:31:07;13.15;;;4.20;;
20639;SDS011;10479;53.524;9.846;2022-08-23T06:33:34;16.17;;;4.63;;
20639;SDS011;10479;53.524;9.846;2022-08-23T06:36:01;11.85;;;3.90;;
20639;SDS011;10479;53.524;9.846;2022-08-23T06:38:29;10.88;;;4.63;;
20639;SDS011;10479;53.524;9.846;2022-08-23T06:41:13;6.75;;;3.80;;
20639;SDS011;10479;53.524;9.846;2022-08-23T06:43:39;9.00;;;3.55;;
20639;SDS011;10479;53.524;9.846;2022-08-23T06:46:10;12.38;;;4.13;;
20639;SDS011;10479;53.524;9.846;2022-08-23T06:48:44;9.48;;;3.80;;
20639;SDS011;10479;53.524;9.846;2022-08-23T06:53:47;9.93;;;3.70;;
20639;SDS011;10479;53.524;9.846;2022-08-23T06:56:13;8.38;;;3.40;;
20639;SDS011;10479;53.524;9.846;2022-08-23T06:58:39;10.73;;;3.70;;
20639;SDS011;10479;53.524;9.846;2022-08-23T07:01:30;9.38;;;4.03;;
20639;SDS011;10479;53.524;9.846;2022-08-23T07:04:09;12.50;;;3.95;;
20639;SDS011;10479;53.524;9.846;2022-08-23T07:06:39;9.20;;;4.25;;
20639;SDS011;10479;53.524;9.846;2022-08-23T07:09:05;9.93;;;3.90;;
20639;SDS011;10479;53.524;9.846;2022-08-23T07:11:39;10.77;;;3.60;;
20639;SDS011;10479;53.524;9.846;2022-08-23T07:14:07;9.35;;;3.88;;
20639;SDS011;10479;53.524;9.846;2022-08-23T07:16:41;9.10;;;3.45;;
20639;SDS011;10479;53.524;9.846;2022-08-23T07:19:09;8.52;;;3.72;;
20639;SDS011;10479;53.524;9.846;2022-08-23T07:21:35;7.53;;;3.42;;
20639;SDS011;10479;53.524;9.846;2022-08-23T07:24:11;8.57;;;3.53;;
20639;SDS011;10479;53.524;9.846;2022-08-23T07:26:38;8.88;;;3.22;;
20639;SDS011;10479;53.524;9.846;2022-08-23T07:29:05;8.98;;;3.53;;
20639;SDS011;10479;53.524;9.846;2022-08-23T07:31:31;7.20;;;3.47;;
20639;SDS011;10479;53.524;9.846;2022-08-23T07:33:58;8.68;;;3.13;;
20639;SDS011;10479;53.524;9.846;2022-08-23T07:36:36;7.50;;;3.38;;
20639;SDS011;10479;53.524;9.846;2022-08-23T07:39:03;10.18;;;3.55;;
20639;SDS011;10479;53.524;9.846;2022-08-23T07:41:30;14.18;;;3.58;;
20639;SDS011;10479;53.524;9.846;2022-08-23T07:43:58;6.05;;;3.05;;
20639;SDS011;10479;53.524;9.846;2022-08-23T07:46:38;7.32;;;2.90;;
20639;SDS011;10479;53.524;9.846;2022-08-23T07:49:06;9.65;;;3.08;;
20639;SDS011;10479;53.524;9.846;2022-08-23T07:51:36;5.45;;;2.80;;
20639;SDS011;10479;53.524;9.846;2022-08-23T07:54:03;11.82;;;3.22;;
20639;SDS011;10479;53.524;9.846;2022-08-23T07:56:33;10.93;;;3.13;;
20639;SDS011;10479;53.524;9.846;2022-08-23T07:59:04;10.20;;;3.30;;
20639;SDS011;10479;53.524;9.846;2022-08-23T08:01:30;6.95;;;2.83;;
20639;SDS011;10479;53.524;9.846;2022-08-23T08:03:56;9.43;;;2.90;;
20639;SDS011;10479;53.524;9.846;2022-08-23T08:06:27;8.27;;;2.70;;
20639;SDS011;10479;53.524;9.846;2022-08-23T08:08:58;9.02;;;3.08;;
20639;SDS011;10479;53.524;9.846;2022-08-23T08:11:24;7.55;;;2.95;;
20639;SDS011;10479;53.524;9.846;2022-08-23T08:13:53;6.07;;;2.70;;
20639;SDS011;10479;53.524;9.846;2022-08-23T08:16:21;7.13;;;2.33;;
20639;SDS011;10479;53.524;9.846;2022-08-23T08:18:55;7.80;;;2.78;;
20639;SDS011;10479;53.524;9.846;2022-08-23T08:21:24;5.18;;;2.67;;
20639;SDS011;10479;53.524;9.846;2022-08-23T08:23:51;9.02;;;2.90;;
20639;SDS011;10479;53.524;9.846;2022-08-23T08:26:16;8.10;;;2.58;;
20639;SDS011;10479;53.524;9.846;2022-08-23T08:28:43;7.72;;;2.90;;
20639;SDS011;10479;53.524;9.846;2022-08-23T08:31:09;7.05;;;2.50;;
20639;SDS011;10479;53.524;9.846;2022-08-23T08:33:35;9.50;;;2.72;;
20639;SDS011;10479;53.524;9.846;2022-08-23T08:36:01;8.63;;;2.60;;
20639;SDS011;10479;53.524;9.846;2022-08-23T08:38:27;11.40;;;2.47;;
20639;SDS011;10479;53.524;9.846;2022-08-23T08:41:10;8.70;;;2.83;;
20639;SDS011;10479;53.524;9.846;2022-08-23T08:43:47;11.15;;;3.55;;
20639;SDS011;10479;53.524;9.846;2022-08-23T08:46:23;5.22;;;2.50;;
20639;SDS011;10479;53.524;9.846;2022-08-23T08:49:01;6.05;;;2.47;;
20639;SDS011;10479;53.524;9.846;2022-08-23T08:51:55;5.45;;;2.40;;
20639;SDS011;10479;53.524;9.846;2022-08-23T08:54:26;6.80;;;2.15;;
20639;SDS011;10479;53.524;9.846;2022-08-23T08:56:55;8.10;;;2.88;;
20639;SDS011;10479;53.524;9.846;2022-08-23T08:59:27;10.85;;;2.45;;
20639;SDS011;10479;53.524;9.846;2022-08-23T09:01:57;7.15;;;2.10;;
20639;SDS011;10479;53.524;9.846;2022-08-23T09:04:23;7.65;;;2.00;;
20639;SDS011;10479;53.524;9.846;2022-08-23T09:06:54;4.30;;;2.08;;
20639;SDS011;10479;53.524;9.846;2022-08-23T09:18:10;4.95;;;1.73;;
20639;SDS011;10479;53.524;9.846;2022-08-23T09:20:38;8.43;;;2.15;;
20639;SDS011;10479;53.524;9.846;2022-08-23T09:23:07;5.93;;;1.95;;
20639;SDS011;10479;53.524;9.846;2022-08-23T09:25:34;7.20;;;1.80;;
20639;SDS011;10479;53.524;9.846;2022-08-23T09:28:00;6.93;;;2.20;;
20639;SDS011;10479;53.524;9.846;2022-08-23T09:33:21;6.70;;;2.17;;
20639;SDS011;10479;53.524;9.846;2022-08-23T09:36:06;3.60;;;1.80;;
20639;SDS011;10479;53.524;9.846;2022-08-23T09:38:47;6.00;;;2.00;;
20639;SDS011;10479;53.524;9.846;2022-08-23T09:41:17;5.90;;;1.80;;
20639;SDS011;10479;53.524;9.846;2022-08-23T09:43:45;6.40;;;2.42;;
20639;SDS011;10479;53.524;9.846;2022-08-23T09:46:22;5.18;;;2.10;;
20639;SDS011;10479;53.524;9.846;2022-08-23T09:48:51;5.97;;;1.88;;
20639;SDS011;10479;53.524;9.846;2022-08-23T09:51:32;7.47;;;1.98;;
20639;SDS011;10479;53.524;9.846;2022-08-23T09:54:07;5.00;;;1.80;;
20639;SDS011;10479;53.524;9.846;2022-08-23T09:56:40;7.78;;;1.98;;
20639;SDS011;10479;53.524;9.846;2022-08-23T09:59:26;10.07;;;2.40;;
20639;SDS011;10479;53.524;9.846;2022-08-23T10:01:58;5.60;;;1.80;;
20639;SDS011;10479;53.524;9.846;2022-08-23T10:06:53;6.63;;;2.22;;
20639;SDS011;10479;53.524;9.846;2022-08-23T10:11:47;4.85;;;1.65;;
20639;SDS011;10479;53.524;9.846;2022-08-23T10:14:17;4.68;;;1.77;;
20639;SDS011;10479;53.524;9.846;2022-08-23T10:22:22;4.85;;;1.60;;
20639;SDS011;10479;53.524;9.846;2022-08-23T10:31:13;5.43;;;2.10;;
20639;SDS011;10479;53.524;9.846;2022-08-23T10:39:15;3.30;;;1.52;;
20639;SDS011;10479;53.524;9.846;2022-08-23T10:49:34;5.15;;;1.17;;
20639;SDS011;10479;53.524;9.846;2022-08-23T10:52:00;5.07;;;1.58;;
20639;SDS011;10479;53.524;9.846;2022-08-23T10:54:33;5.05;;;1.30;;
20639;SDS011;10479;53.524;9.846;2022-08-23T10:57:10;4.07;;;1.38;;
20639;SDS011;10479;53.524;9.846;2022-08-23T10:59:44;4.63;;;1.45;;
20639;SDS011;10479;53.524;9.846;2022-08-23T11:02:24;5.75;;;1.40;;
20639;SDS011;10479;53.524;9.846;2022-08-23T11:05:04;5.05;;;1.58;;
20639;SDS011;10479;53.524;9.846;2022-08-23T11:07:55;4.32;;;1.30;;
20639;SDS011;10479;53.524;9.846;2022-08-23T11:10:46;3.75;;;1.13;;
20639;SDS011;10479;53.524;9.846;2022-08-23T11:15:45;3.60;;;1.20;;
20639;SDS011;10479;53.524;9.846;2022-08-23T11:23:45;7.07;;;1.23;;
20639;SDS011;10479;53.524;9.846;2022-08-23T11:27:09;3.38;;;1.27;;
20639;SDS011;10479;53.524;9.846;2022-08-23T11:34:32;6.00;;;1.10;;
20639;SDS011;10479;53.524;9.846;2022-08-23T11:42:22;3.00;;;1.10;;
20639;SDS011;10479;53.524;9.846;2022-08-23T11:44:49;4.53;;;1.30;;
20639;SDS011;10479;53.524;9.846;2022-08-23T11:47:14;2.55;;;1.00;;
20639;SDS011;10479;53.524;9.846;2022-08-23T11:52:35;5.50;;;1.60;;
20639;SDS011;10479;53.524;9.846;2022-08-23T12:06:51;2.10;;;1.02;;
20639;SDS011;10479;53.524;9.846;2022-08-23T12:25:31;5.25;;;1.10;;
20639;SDS011;10479;53.524;9.846;2022-08-23T12:39:20;7.03;;;1.27;;
20639;SDS011;10479;53.524;9.846;2022-08-23T12:44:42;3.92;;;1.17;;
20639;SDS011;10479;53.524;9.846;2022-08-23T12:47:09;6.50;;;1.00;;
20639;SDS011;10479;53.524;9.846;2022-08-23T12:49:58;6.80;;;1.20;;
20639;SDS011;10479;53.524;9.846;2022-08-23T12:52:31;4.40;;;1.30;;
20639;SDS011;10479;53.524;9.846;2022-08-23T12:57:28;3.08;;;1.10;;
20639;SDS011;10479;53.524;9.846;2022-08-23T13:00:07;4.13;;;1.20;;
20639;SDS011;10479;53.524;9.846;2022-08-23T13:02:38;3.10;;;1.10;;
20639;SDS011;10479;53.524;9.846;2022-08-23T13:05:12;4.03;;;1.00;;
20639;SDS011;10479;53.524;9.846;2022-08-23T13:07:43;2.92;;;1.00;;
20639;SDS011;10479;53.524;9.846;2022-08-23T13:10:11;2.85;;;1.30;;
20639;SDS011;10479;53.524;9.846;2022-08-23T13:12:37;4.07;;;1.30;;
20639;SDS011;10479;53.524;9.846;2022-08-23T13:15:03;3.33;;;1.20;;
20639;SDS011;10479;53.524;9.846;2022-08-23T13:17:33;3.28;;;1.05;;
20639;SDS011;10479;53.524;9.846;2022-08-23T13:22:32;5.40;;;0.95;;
20639;SDS011;10479;53.524;9.846;2022-08-23T13:25:03;3.55;;;1.30;;
20639;SDS011;10479;53.524;9.846;2022-08-23T13:27:31;6.50;;;1.15;;
20639;SDS011;10479;53.524;9.846;2022-08-23T13:32:41;2.90;;;1.30;;
20639;SDS011;10479;53.524;9.846;2022-08-23T13:43:21;5.15;;;1.92;;
20639;SDS011;10479;53.524;9.846;2022-08-23T13:45:51;2.80;;;0.90;;
20639;SDS011;10479;53.524;9.846;2022-08-23T13:48:23;3.25;;;1.00;;
20639;SDS011;10479;53.524;9.846;2022-08-23T13:50:50;3.80;;;1.30;;
20639;SDS011;10479;53.524;9.846;2022-08-23T13:53:16;3.10;;;1.20;;
20639;SDS011;10479;53.524;9.846;2022-08-23T13:55:53;6.72;;;1.30;;
20639;SDS011;10479;53.524;9.846;2022-08-23T13:58:29;4.03;;;1.02;;
20639;SDS011;10479;53.524;9.846;2022-08-23T14:00:58;3.30;;;1.20;;
20639;SDS011;10479;53.524;9.846;2022-08-23T14:03:24;6.15;;;1.38;;
20639;SDS011;10479;53.524;9.846;2022-08-23T14:05:50;4.40;;;1.15;;
20639;SDS011;10479;53.524;9.846;2022-08-23T14:08:17;5.45;;;1.17;;
20639;SDS011;10479;53.524;9.846;2022-08-23T14:10:43;3.75;;;1.05;;
20639;SDS011;10479;53.524;9.846;2022-08-23T14:13:10;3.05;;;1.20;;
20639;SDS011;10479;53.524;9.846;2022-08-23T14:15:41;4.18;;;1.15;;
20639;SDS011;10479;53.524;9.846;2022-08-23T14:18:18;4.63;;;1.10;;
20639;SDS011;10479;53.524;9.846;2022-08-23T14:20:44;5.25;;;1.27;;
20639;SDS011;10479;53.524;9.846;2022-08-23T14:23:10;4.07;;;1.27;;
20639;SDS011;10479;53.524;9.846;2022-08-23T14:25:35;6.00;;;1.40;;
20639;SDS011;10479;53.524;9.846;2022-08-23T14:28:01;3.83;;;1.25;;
20639;SDS011;10479;53.524;9.846;2022-08-23T14:30:28;4.72;;;1.20;;
20639;SDS011;10479;53.524;9.846;2022-08-23T14:32:56;2.20;;;1.00;;
20639;SDS011;10479;53.524;9.846;2022-08-23T14:35:22;3.28;;;1.25;;
20639;SDS011;10479;53.524;9.846;2022-08-23T14:37:47;6.00;;;1.38;;
20639;SDS011;10479;53.524;9.846;2022-08-23T14:40:13;2.55;;;1.10;;
20639;SDS011;10479;53.524;9.846;2022-08-23T14:42:49;4.40;;;1.30;;
20639;SDS011;10479;53.524;9.846;2022-08-23T14:45:15;3.78;;;1.45;;
20639;SDS011;10479;53.524;9.846;2022-08-23T14:47:46;6.38;;;1.60;;
20639;SDS011;10479;53.524;9.846;2022-08-23T14:50:22;4.28;;;1.20;;
20639;SDS011;10479;53.524;9.846;2022-08-23T14:52:47;5.32;;;1.20;;
20639;SDS011;10479;53.524;9.846;2022-08-23T14:55:15;3.58;;;1.30;;
20639;SDS011;10479;53.524;9.846;2022-08-23T14:57:43;4.82;;;1.15;;
20639;SDS011;10479;53.524;9.846;2022-08-23T15:00:09;5.82;;;1.30;;
20639;SDS011;10479;53.524;9.846;2022-08-23T15:02:41;7.32;;;1.30;;
20639;SDS011;10479;53.524;9.846;2022-08-23T15:05:11;4.77;;;1.50;;
20639;SDS011;10479;53.524;9.846;2022-08-23T15:07:38;4.63;;;1.50;;
20639;SDS011;10479;53.524;9.846;2022-08-23T15:10:04;7.40;;;1.38;;
20639;SDS011;10479;53.524;9.846;2022-08-23T15:12:30;5.45;;;1.33;;
20639;SDS011;10479;53.524;9.846;2022-08-23T15:14:55;6.32;;;1.30;;
20639;SDS011;10479;53.524;9.846;2022-08-23T15:17:21;4.43;;;1.45;;
20639;SDS011;10479;53.524;9.846;2022-08-23T15:19:46;5.22;;;1.30;;
20639;SDS011;10479;53.524;9.846;2022-08-23T15:22:12;3.08;;;1.40;;
20639;SDS011;10479;53.524;9.846;2022-08-23T15:24:37;5.65;;;1.40;;
20639;SDS011;10479;53.524;9.846;2022-08-23T15:27:04;4.25;;;1.30;;
20639;SDS011;10479;53.524;9.846;2022-08-23T15:29:30;4.80;;;1.38;;
20639;SDS011;10479;53.524;9.846;2022-08-23T15:31:56;3.05;;;1.20;;
20639;SDS011;10479;53.524;9.846;2022-08-23T15:34:21;4.32;;;1.50;;
20639;SDS011;10479;53.524;9.846;2022-08-23T15:36:47;5.38;;;1.58;;
20639;SDS011;10479;53.524;9.846;2022-08-23T15:39:13;4.10;;;1.40;;
20639;SDS011;10479;53.524;9.846;2022-08-23T15:41:38;4.72;;;1.40;;
20639;SDS011;10479;53.524;9.846;2022-08-23T15:44:04;7.10;;;1.40;;
20639;SDS011;10479;53.524;9.846;2022-08-23T15:46:30;5.65;;;1.30;;
20639;SDS011;10479;53.524;9.846;2022-08-23T15:48:59;3.70;;;1.38;;
20639;SDS011;10479;53.524;9.846;2022-08-23T15:51:27;6.95;;;1.20;;
20639;SDS011;10479;53.524;9.846;2022-08-23T15:53:53;2.88;;;1.20;;
20639;SDS011;10479;53.524;9.846;2022-08-23T15:56:21;4.00;;;1.45;;
20639;SDS011;10479;53.524;9.846;2022-08-23T15:58:53;4.40;;;1.33;;
20639;SDS011;10479;53.524;9.846;2022-08-23T16:01:18;4.28;;;1.30;;
20639;SDS011;10479;53.524;9.846;2022-08-23T16:03:47;3.63;;;1.27;;
20639;SDS011;10479;53.524;9.846;2022-08-23T16:06:13;3.22;;;1.20;;
20639;SDS011;10479;53.524;9.846;2022-08-23T16:08:40;4.05;;;1.42;;
20639;SDS011;10479;53.524;9.846;2022-08-23T16:11:07;3.97;;;1.10;;
20639;SDS011;10479;53.524;9.846;2022-08-23T16:13:37;3.85;;;1.23;;
20639;SDS011;10479;53.524;9.846;2022-08-23T16:16:26;5.28;;;1.45;;
20639;SDS011;10479;53.524;9.846;2022-08-23T16:18:55;5.40;;;1.27;;
20639;SDS011;10479;53.524;9.846;2022-08-23T16:21:22;7.00;;;1.50;;
20639;SDS011;10479;53.524;9.846;2022-08-23T16:23:49;3.50;;;1.20;;
20639;SDS011;10479;53.524;9.846;2022-08-23T16:26:19;2.72;;;1.40;;
20639;SDS011;10479;53.524;9.846;2022-08-23T16:28:47;4.05;;;1.48;;
20639;SDS011;10479;53.524;9.846;2022-08-23T16:31:13;4.38;;;1.85;;
20639;SDS011;10479;53.524;9.846;2022-08-23T16:33:39;3.70;;;1.33;;
20639;SDS011;10479;53.524;9.846;2022-08-23T16:36:05;3.13;;;1.20;;
20639;SDS011;10479;53.524;9.846;2022-08-23T16:38:32;4.60;;;1.30;;
20639;SDS011;10479;53.524;9.846;2022-08-23T16:40:58;7.53;;;1.50;;
20639;SDS011;10479;53.524;9.846;2022-08-23T16:43:25;5.28;;;1.63;;
20639;SDS011;10479;53.524;9.846;2022-08-23T16:45:50;5.78;;;1.33;;
20639;SDS011;10479;53.524;9.846;2022-08-23T16:48:16;6.45;;;1.38;;
20639;SDS011;10479;53.524;9.846;2022-08-23T16:50:42;5.78;;;1.38;;
20639;SDS011;10479;53.524;9.846;2022-08-23T16:53:11;3.13;;;1.50;;
20639;SDS011;10479;53.524;9.846;2022-08-23T16:55:37;6.85;;;1.33;;
20639;SDS011;10479;53.524;9.846;2022-08-23T16:58:04;4.35;;;1.15;;
20639;SDS011;10479;53.524;9.846;2022-08-23T17:00:35;3.45;;;1.13;;
20639;SDS011;10479;53.524;9.846;2022-08-23T17:03:01;3.33;;;1.23;;
20639;SDS011;10479;53.524;9.846;2022-08-23T17:05:30;3.92;;;1.40;;
20639;SDS011;10479;53.524;9.846;2022-08-23T17:07:56;6.32;;;1.50;;
20639;SDS011;10479;53.524;9.846;2022-08-23T17:10:22;3.90;;;1.30;;
20639;SDS011;10479;53.524;9.846;2022-08-23T17:12:49;4.50;;;1.20;;
20639;SDS011;10479;53.524;9.846;2022-08-23T17:15:19;3.28;;;1.40;;
20639;SDS011;10479;53.524;9.846;2022-08-23T17:17:53;4.70;;;1.10;;